sensor_id;sensor_type;location;lat;lon;timestamp;P1;durP1;ratioP1;P2;durP2;ratioP2
6809;SDS011;3443;48.812;9.112;2024-01-11T00:00:48;38.63;;;28.77;;
6809;SDS011;3443;48.812;9.112;2024-01-11T00:03:14;38.40;;;29.30;;
6809;SDS011;3443;48.812;9.112;2024-01-11T00:05:40;36.17;;;27.77;;
6809;SDS011;3443;48.812;9.112;2024-01-11T00:08:06;29.60;;;24.53;;
6809;SDS011;3443;48.812;9.112;2024-01-11T00:10:32;37.03;;;27.97;;
6809;SDS011;3443;48.812;9.112;2024-01-11T00:12:58;39.13;;;28.73;;
6809;SDS011;3443;48.812;9.112;2024-01-11T00:15:23;38.47;;;28.17;;
6809;SDS011;3443;48.812;9.112;2024-01-11T00:17:49;37.10;;;28.50;;
6809;SDS011;3443;48.812;9.112;2024-01-11T00:20:14;41.53;;;31.03;;
6809;SDS011;3443;48.812;9.112;2024-01-11T00:22:40;36.53;;;27.77;;
6809;SDS011;3443;48.812;9.112;2024-01-11T00:25:06;38.13;;;28.87;;
6809;SDS011;3443;48.812;9.112;2024-01-11T00:27:31;36.83;;;29.13;;
6809;SDS011;3443;48.812;9.112;2024-01-11T00:29:58;37.77;;;29.50;;
6809;SDS011;3443;48.812;9.112;2024-01-11T00:32:23;33.97;;;27.37;;
6809;SDS011;3443;48.812;9.112;2024-01-11T00:34:49;34.47;;;27.50;;
6809;SDS011;3443;48.812;9.112;2024-01-11T00:37:14;38.10;;;29.17;;
6809;SDS011;3443;48.812;9.112;2024-01-11T00:39:41;39.13;;;30.00;;
6809;SDS011;3443;48.812;9.112;2024-01-11T00:42:06;36.40;;;28.30;;
6809;SDS011;3443;48.812;9.112;2024-01-11T00:44:32;39.77;;;30.10;;
6809;SDS011;3443;48.812;9.112;2024-01-11T00:46:58;34.87;;;27.07;;
6809;SDS011;3443;48.812;9.112;2024-01-11T00:49:23;37.97;;;28.47;;
6809;SDS011;3443;48.812;9.112;2024-01-11T00:51:49;37.17;;;27.73;;
6809;SDS011;3443;48.812;9.112;2024-01-11T00:54:14;37.30;;;28.70;;
6809;SDS011;3443;48.812;9.112;2024-01-11T00:56:40;38.27;;;28.80;;
6809;SDS011;3443;48.812;9.112;2024-01-11T00:59:05;38.80;;;29.87;;
6809;SDS011;3443;48.812;9.112;2024-01-11T01:01:31;39.27;;;30.87;;
6809;SDS011;3443;48.812;9.112;2024-01-11T01:03:56;34.27;;;27.70;;
6809;SDS011;3443;48.812;9.112;2024-01-11T01:06:23;38.20;;;28.53;;
6809;SDS011;3443;48.812;9.112;2024-01-11T01:08:48;38.03;;;29.33;;
6809;SDS011;3443;48.812;9.112;2024-01-11T01:11:14;38.77;;;29.83;;
6809;SDS011;3443;48.812;9.112;2024-01-11T01:13:39;39.03;;;29.37;;
6809;SDS011;3443;48.812;9.112;2024-01-11T01:16:05;40.93;;;31.77;;
6809;SDS011;3443;48.812;9.112;2024-01-11T01:18:30;40.10;;;29.43;;
6809;SDS011;3443;48.812;9.112;2024-01-11T01:20:56;39.73;;;31.20;;
6809;SDS011;3443;48.812;9.112;2024-01-11T01:23:21;38.40;;;31.43;;
6809;SDS011;3443;48.812;9.112;2024-01-11T01:25:48;37.33;;;30.60;;
6809;SDS011;3443;48.812;9.112;2024-01-11T01:28:13;38.80;;;30.70;;
6809;SDS011;3443;48.812;9.112;2024-01-11T01:30:39;35.73;;;28.70;;
6809;SDS011;3443;48.812;9.112;2024-01-11T01:33:04;38.20;;;29.63;;
6809;SDS011;3443;48.812;9.112;2024-01-11T01:35:30;37.20;;;29.87;;
6809;SDS011;3443;48.812;9.112;2024-01-11T01:37:56;37.57;;;27.63;;
6809;SDS011;3443;48.812;9.112;2024-01-11T01:40:21;35.90;;;28.67;;
6809;SDS011;3443;48.812;9.112;2024-01-11T01:42:47;35.27;;;28.43;;
6809;SDS011;3443;48.812;9.112;2024-01-11T01:45:14;38.67;;;29.47;;
6809;SDS011;3443;48.812;9.112;2024-01-11T01:47:40;39.20;;;30.77;;
6809;SDS011;3443;48.812;9.112;2024-01-11T01:50:07;37.27;;;30.87;;
6809;SDS011;3443;48.812;9.112;2024-01-11T01:52:34;41.60;;;31.80;;
6809;SDS011;3443;48.812;9.112;2024-01-11T01:55:02;38.23;;;30.77;;
6809;SDS011;3443;48.812;9.112;2024-01-11T01:57:29;38.47;;;31.40;;
6809;SDS011;3443;48.812;9.112;2024-01-11T01:59:58;40.97;;;30.80;;
6809;SDS011;3443;48.812;9.112;2024-01-11T02:02:23;39.30;;;29.10;;
6809;SDS011;3443;48.812;9.112;2024-01-11T02:04:50;38.53;;;31.40;;
6809;SDS011;3443;48.812;9.112;2024-01-11T02:07:15;41.87;;;31.17;;
6809;SDS011;3443;48.812;9.112;2024-01-11T02:09:41;38.53;;;30.53;;
6809;SDS011;3443;48.812;9.112;2024-01-11T02:12:08;35.47;;;29.90;;
6809;SDS011;3443;48.812;9.112;2024-01-11T02:14:37;40.30;;;31.00;;
6809;SDS011;3443;48.812;9.112;2024-01-11T02:17:02;39.37;;;31.50;;
6809;SDS011;3443;48.812;9.112;2024-01-11T02:19:28;36.57;;;30.00;;
6809;SDS011;3443;48.812;9.112;2024-01-11T02:21:54;37.83;;;30.20;;
6809;SDS011;3443;48.812;9.112;2024-01-11T02:24:20;39.23;;;31.23;;
6809;SDS011;3443;48.812;9.112;2024-01-11T02:26:57;38.83;;;30.47;;
6809;SDS011;3443;48.812;9.112;2024-01-11T02:29:27;35.80;;;29.17;;
6809;SDS011;3443;48.812;9.112;2024-01-11T02:31:54;40.57;;;31.47;;
6809;SDS011;3443;48.812;9.112;2024-01-11T02:34:20;36.30;;;29.40;;
6809;SDS011;3443;48.812;9.112;2024-01-11T02:36:46;42.73;;;31.43;;
6809;SDS011;3443;48.812;9.112;2024-01-11T02:39:12;40.57;;;30.50;;
6809;SDS011;3443;48.812;9.112;2024-01-11T02:41:41;41.37;;;31.23;;
6809;SDS011;3443;48.812;9.112;2024-01-11T02:44:08;37.67;;;28.77;;
6809;SDS011;3443;48.812;9.112;2024-01-11T02:46:33;38.67;;;29.67;;
6809;SDS011;3443;48.812;9.112;2024-01-11T02:48:59;38.17;;;29.73;;
6809;SDS011;3443;48.812;9.112;2024-01-11T02:51:25;36.20;;;29.73;;
6809;SDS011;3443;48.812;9.112;2024-01-11T02:53:50;38.53;;;29.47;;
6809;SDS011;3443;48.812;9.112;2024-01-11T02:56:16;38.77;;;29.87;;
6809;SDS011;3443;48.812;9.112;2024-01-11T02:58:41;38.60;;;30.60;;
6809;SDS011;3443;48.812;9.112;2024-01-11T03:01:07;37.23;;;28.50;;
6809;SDS011;3443;48.812;9.112;2024-01-11T03:03:32;39.37;;;28.50;;
6809;SDS011;3443;48.812;9.112;2024-01-11T03:05:58;35.00;;;27.57;;
6809;SDS011;3443;48.812;9.112;2024-01-11T03:08:23;37.33;;;28.60;;
6809;SDS011;3443;48.812;9.112;2024-01-11T03:10:49;40.13;;;29.57;;
6809;SDS011;3443;48.812;9.112;2024-01-11T03:13:15;36.77;;;29.40;;
6809;SDS011;3443;48.812;9.112;2024-01-11T03:15:40;38.40;;;29.70;;
6809;SDS011;3443;48.812;9.112;2024-01-11T03:18:06;40.40;;;30.53;;
6809;SDS011;3443;48.812;9.112;2024-01-11T03:20:31;39.63;;;29.53;;
6809;SDS011;3443;48.812;9.112;2024-01-11T03:22:57;40.40;;;30.43;;
6809;SDS011;3443;48.812;9.112;2024-01-11T03:25:22;38.13;;;29.10;;
6809;SDS011;3443;48.812;9.112;2024-01-11T03:27:48;38.63;;;29.47;;
6809;SDS011;3443;48.812;9.112;2024-01-11T03:30:14;37.07;;;28.33;;
6809;SDS011;3443;48.812;9.112;2024-01-11T03:36:07;39.50;;;29.47;;
6809;SDS011;3443;48.812;9.112;2024-01-11T03:38:33;43.20;;;31.57;;
6809;SDS011;3443;48.812;9.112;2024-01-11T03:40:59;36.23;;;28.00;;
6809;SDS011;3443;48.812;9.112;2024-01-11T03:43:25;38.70;;;29.47;;
6809;SDS011;3443;48.812;9.112;2024-01-11T03:45:50;40.23;;;29.77;;
6809;SDS011;3443;48.812;9.112;2024-01-11T03:48:16;37.90;;;28.60;;
6809;SDS011;3443;48.812;9.112;2024-01-11T03:50:41;41.33;;;31.27;;
6809;SDS011;3443;48.812;9.112;2024-01-11T03:53:07;36.23;;;29.13;;
6809;SDS011;3443;48.812;9.112;2024-01-11T03:55:33;40.37;;;30.47;;
6809;SDS011;3443;48.812;9.112;2024-01-11T03:57:58;39.17;;;31.50;;
6809;SDS011;3443;48.812;9.112;2024-01-11T04:00:24;36.97;;;31.10;;
6809;SDS011;3443;48.812;9.112;2024-01-11T04:02:49;41.67;;;32.00;;
6809;SDS011;3443;48.812;9.112;2024-01-11T04:05:15;42.17;;;31.60;;
6809;SDS011;3443;48.812;9.112;2024-01-11T04:07:41;36.77;;;29.73;;
6809;SDS011;3443;48.812;9.112;2024-01-11T04:10:06;39.73;;;31.63;;
6809;SDS011;3443;48.812;9.112;2024-01-11T04:12:35;37.77;;;30.83;;
6809;SDS011;3443;48.812;9.112;2024-01-11T04:15:02;34.23;;;28.33;;
6809;SDS011;3443;48.812;9.112;2024-01-11T04:17:28;39.37;;;31.67;;
6809;SDS011;3443;48.812;9.112;2024-01-11T04:19:53;38.10;;;30.57;;
6809;SDS011;3443;48.812;9.112;2024-01-11T04:22:19;40.63;;;31.30;;
6809;SDS011;3443;48.812;9.112;2024-01-11T04:24:45;41.40;;;32.67;;
6809;SDS011;3443;48.812;9.112;2024-01-11T04:27:10;38.37;;;30.73;;
6809;SDS011;3443;48.812;9.112;2024-01-11T04:29:36;40.93;;;30.80;;
6809;SDS011;3443;48.812;9.112;2024-01-11T04:32:02;41.00;;;30.50;;
6809;SDS011;3443;48.812;9.112;2024-01-11T04:34:28;38.40;;;29.50;;
6809;SDS011;3443;48.812;9.112;2024-01-11T04:36:53;40.63;;;31.10;;
6809;SDS011;3443;48.812;9.112;2024-01-11T04:39:19;42.80;;;32.73;;
6809;SDS011;3443;48.812;9.112;2024-01-11T04:41:45;36.73;;;29.50;;
6809;SDS011;3443;48.812;9.112;2024-01-11T04:44:10;37.87;;;29.70;;
6809;SDS011;3443;48.812;9.112;2024-01-11T04:46:36;42.40;;;32.10;;
6809;SDS011;3443;48.812;9.112;2024-01-11T04:49:01;38.63;;;30.80;;
6809;SDS011;3443;48.812;9.112;2024-01-11T04:51:27;42.67;;;32.10;;
6809;SDS011;3443;48.812;9.112;2024-01-11T04:53:52;39.97;;;32.03;;
6809;SDS011;3443;48.812;9.112;2024-01-11T04:56:18;40.47;;;29.87;;
6809;SDS011;3443;48.812;9.112;2024-01-11T04:58:44;38.33;;;31.43;;
6809;SDS011;3443;48.812;9.112;2024-01-11T05:01:13;40.80;;;31.27;;
6809;SDS011;3443;48.812;9.112;2024-01-11T05:03:40;41.93;;;32.53;;
6809;SDS011;3443;48.812;9.112;2024-01-11T05:06:15;42.33;;;33.23;;
6809;SDS011;3443;48.812;9.112;2024-01-11T05:08:42;40.07;;;30.30;;
6809;SDS011;3443;48.812;9.112;2024-01-11T05:11:14;41.87;;;31.93;;
6809;SDS011;3443;48.812;9.112;2024-01-11T05:13:43;39.97;;;31.90;;
6809;SDS011;3443;48.812;9.112;2024-01-11T05:16:25;39.97;;;31.67;;
6809;SDS011;3443;48.812;9.112;2024-01-11T05:18:53;45.57;;;32.93;;
6809;SDS011;3443;48.812;9.112;2024-01-11T05:21:20;42.57;;;33.70;;
6809;SDS011;3443;48.812;9.112;2024-01-11T05:23:46;43.37;;;32.50;;
6809;SDS011;3443;48.812;9.112;2024-01-11T05:26:12;38.33;;;30.17;;
6809;SDS011;3443;48.812;9.112;2024-01-11T05:28:39;44.70;;;33.07;;
6809;SDS011;3443;48.812;9.112;2024-01-11T05:31:05;41.93;;;33.37;;
6809;SDS011;3443;48.812;9.112;2024-01-11T05:33:34;43.23;;;33.77;;
6809;SDS011;3443;48.812;9.112;2024-01-11T05:36:00;38.17;;;31.03;;
6809;SDS011;3443;48.812;9.112;2024-01-11T05:38:25;41.47;;;31.87;;
6809;SDS011;3443;48.812;9.112;2024-01-11T05:40:51;40.33;;;31.17;;
6809;SDS011;3443;48.812;9.112;2024-01-11T05:43:17;40.77;;;30.83;;
6809;SDS011;3443;48.812;9.112;2024-01-11T05:45:42;43.30;;;32.43;;
6809;SDS011;3443;48.812;9.112;2024-01-11T05:48:09;39.63;;;31.10;;
6809;SDS011;3443;48.812;9.112;2024-01-11T05:50:35;37.70;;;28.63;;
6809;SDS011;3443;48.812;9.112;2024-01-11T05:53:01;41.83;;;30.30;;
6809;SDS011;3443;48.812;9.112;2024-01-11T05:55:27;44.67;;;32.47;;
6809;SDS011;3443;48.812;9.112;2024-01-11T05:57:53;44.37;;;33.70;;
6809;SDS011;3443;48.812;9.112;2024-01-11T06:00:19;44.43;;;32.20;;
6809;SDS011;3443;48.812;9.112;2024-01-11T06:02:45;39.47;;;31.17;;
6809;SDS011;3443;48.812;9.112;2024-01-11T06:05:10;44.07;;;32.67;;
6809;SDS011;3443;48.812;9.112;2024-01-11T06:07:37;37.07;;;30.63;;
6809;SDS011;3443;48.812;9.112;2024-01-11T06:10:04;44.07;;;33.20;;
6809;SDS011;3443;48.812;9.112;2024-01-11T06:12:31;43.20;;;34.13;;
6809;SDS011;3443;48.812;9.112;2024-01-11T06:14:56;42.80;;;33.17;;
6809;SDS011;3443;48.812;9.112;2024-01-11T06:17:22;42.07;;;32.53;;
6809;SDS011;3443;48.812;9.112;2024-01-11T06:19:48;44.83;;;33.40;;
6809;SDS011;3443;48.812;9.112;2024-01-11T06:22:14;46.33;;;32.60;;
6809;SDS011;3443;48.812;9.112;2024-01-11T06:24:40;42.57;;;31.83;;
6809;SDS011;3443;48.812;9.112;2024-01-11T06:27:05;43.70;;;32.17;;
6809;SDS011;3443;48.812;9.112;2024-01-11T06:29:31;45.33;;;33.13;;
6809;SDS011;3443;48.812;9.112;2024-01-11T06:31:58;43.33;;;32.57;;
6809;SDS011;3443;48.812;9.112;2024-01-11T06:34:24;40.27;;;30.17;;
6809;SDS011;3443;48.812;9.112;2024-01-11T06:36:49;42.80;;;31.47;;
6809;SDS011;3443;48.812;9.112;2024-01-11T06:39:15;46.43;;;32.43;;
6809;SDS011;3443;48.812;9.112;2024-01-11T06:41:40;45.80;;;34.53;;
6809;SDS011;3443;48.812;9.112;2024-01-11T06:44:06;44.80;;;32.67;;
6809;SDS011;3443;48.812;9.112;2024-01-11T06:46:31;41.87;;;32.53;;
6809;SDS011;3443;48.812;9.112;2024-01-11T06:48:57;42.50;;;31.50;;
6809;SDS011;3443;48.812;9.112;2024-01-11T06:51:23;43.33;;;32.60;;
6809;SDS011;3443;48.812;9.112;2024-01-11T06:53:49;46.67;;;34.03;;
6809;SDS011;3443;48.812;9.112;2024-01-11T06:56:15;42.87;;;30.93;;
6809;SDS011;3443;48.812;9.112;2024-01-11T06:58:42;47.30;;;34.63;;
6809;SDS011;3443;48.812;9.112;2024-01-11T07:01:08;44.73;;;35.43;;
6809;SDS011;3443;48.812;9.112;2024-01-11T07:03:34;43.00;;;32.97;;
6809;SDS011;3443;48.812;9.112;2024-01-11T07:06:00;43.40;;;31.80;;
6809;SDS011;3443;48.812;9.112;2024-01-11T07:08:25;42.47;;;32.93;;
6809;SDS011;3443;48.812;9.112;2024-01-11T07:10:51;47.47;;;34.90;;
6809;SDS011;3443;48.812;9.112;2024-01-11T07:13:16;43.93;;;32.57;;
6809;SDS011;3443;48.812;9.112;2024-01-11T07:15:42;45.37;;;33.07;;
6809;SDS011;3443;48.812;9.112;2024-01-11T07:18:08;49.00;;;36.80;;
6809;SDS011;3443;48.812;9.112;2024-01-11T07:20:34;43.20;;;33.23;;
6809;SDS011;3443;48.812;9.112;2024-01-11T07:22:59;46.40;;;36.03;;
6809;SDS011;3443;48.812;9.112;2024-01-11T07:25:25;43.97;;;34.30;;
6809;SDS011;3443;48.812;9.112;2024-01-11T07:27:51;45.10;;;32.40;;
6809;SDS011;3443;48.812;9.112;2024-01-11T07:30:17;52.10;;;37.33;;
6809;SDS011;3443;48.812;9.112;2024-01-11T07:32:45;48.13;;;36.70;;
6809;SDS011;3443;48.812;9.112;2024-01-11T07:35:11;47.23;;;34.03;;
6809;SDS011;3443;48.812;9.112;2024-01-11T07:37:37;47.10;;;34.57;;
6809;SDS011;3443;48.812;9.112;2024-01-11T07:40:04;49.73;;;34.90;;
6809;SDS011;3443;48.812;9.112;2024-01-11T07:42:36;51.27;;;35.87;;
6809;SDS011;3443;48.812;9.112;2024-01-11T07:45:03;47.53;;;35.47;;
6809;SDS011;3443;48.812;9.112;2024-01-11T07:47:30;47.57;;;34.73;;
6809;SDS011;3443;48.812;9.112;2024-01-11T07:49:55;47.63;;;34.70;;
6809;SDS011;3443;48.812;9.112;2024-01-11T07:52:21;46.23;;;34.80;;
6809;SDS011;3443;48.812;9.112;2024-01-11T07:54:47;42.67;;;32.30;;
6809;SDS011;3443;48.812;9.112;2024-01-11T07:57:12;46.67;;;35.67;;
6809;SDS011;3443;48.812;9.112;2024-01-11T07:59:38;48.43;;;35.60;;
6809;SDS011;3443;48.812;9.112;2024-01-11T08:02:04;51.10;;;36.83;;
6809;SDS011;3443;48.812;9.112;2024-01-11T08:04:31;47.07;;;35.43;;
6809;SDS011;3443;48.812;9.112;2024-01-11T08:06:57;49.53;;;36.30;;
6809;SDS011;3443;48.812;9.112;2024-01-11T08:09:25;45.20;;;32.73;;
6809;SDS011;3443;48.812;9.112;2024-01-11T08:11:51;45.67;;;34.43;;
6809;SDS011;3443;48.812;9.112;2024-01-11T08:14:19;43.30;;;33.30;;
6809;SDS011;3443;48.812;9.112;2024-01-11T08:16:45;47.67;;;32.97;;
6809;SDS011;3443;48.812;9.112;2024-01-11T08:19:10;50.73;;;35.30;;
6809;SDS011;3443;48.812;9.112;2024-01-11T08:21:38;46.33;;;33.87;;
6809;SDS011;3443;48.812;9.112;2024-01-11T08:24:04;47.40;;;34.20;;
6809;SDS011;3443;48.812;9.112;2024-01-11T08:26:30;47.60;;;34.40;;
6809;SDS011;3443;48.812;9.112;2024-01-11T08:28:55;46.97;;;34.03;;
6809;SDS011;3443;48.812;9.112;2024-01-11T08:31:21;43.37;;;32.70;;
6809;SDS011;3443;48.812;9.112;2024-01-11T08:33:47;44.97;;;32.43;;
6809;SDS011;3443;48.812;9.112;2024-01-11T08:36:12;44.77;;;32.63;;
6809;SDS011;3443;48.812;9.112;2024-01-11T08:38:38;47.17;;;34.67;;
6809;SDS011;3443;48.812;9.112;2024-01-11T08:41:05;46.60;;;33.90;;
6809;SDS011;3443;48.812;9.112;2024-01-11T08:43:31;49.43;;;34.90;;
6809;SDS011;3443;48.812;9.112;2024-01-11T08:45:57;44.67;;;34.10;;
6809;SDS011;3443;48.812;9.112;2024-01-11T08:48:23;45.53;;;33.93;;
6809;SDS011;3443;48.812;9.112;2024-01-11T08:50:49;43.13;;;32.07;;
6809;SDS011;3443;48.812;9.112;2024-01-11T08:53:15;44.33;;;33.23;;
6809;SDS011;3443;48.812;9.112;2024-01-11T08:55:43;45.57;;;32.30;;
6809;SDS011;3443;48.812;9.112;2024-01-11T08:58:09;44.03;;;33.23;;
6809;SDS011;3443;48.812;9.112;2024-01-11T09:00:35;43.87;;;32.73;;
6809;SDS011;3443;48.812;9.112;2024-01-11T09:03:02;49.07;;;34.93;;
6809;SDS011;3443;48.812;9.112;2024-01-11T09:05:28;45.17;;;33.70;;
6809;SDS011;3443;48.812;9.112;2024-01-11T09:07:53;43.63;;;33.20;;
6809;SDS011;3443;48.812;9.112;2024-01-11T09:10:19;47.27;;;33.13;;
6809;SDS011;3443;48.812;9.112;2024-01-11T09:12:45;47.20;;;34.47;;
6809;SDS011;3443;48.812;9.112;2024-01-11T09:15:11;45.77;;;34.37;;
6809;SDS011;3443;48.812;9.112;2024-01-11T09:17:37;44.03;;;33.70;;
6809;SDS011;3443;48.812;9.112;2024-01-11T09:20:03;44.53;;;33.13;;
6809;SDS011;3443;48.812;9.112;2024-01-11T09:22:29;48.23;;;34.37;;
6809;SDS011;3443;48.812;9.112;2024-01-11T09:24:55;49.17;;;34.17;;
6809;SDS011;3443;48.812;9.112;2024-01-11T09:27:21;48.97;;;35.93;;
6809;SDS011;3443;48.812;9.112;2024-01-11T09:29:47;48.73;;;35.53;;
6809;SDS011;3443;48.812;9.112;2024-01-11T09:32:13;49.33;;;35.47;;
6809;SDS011;3443;48.812;9.112;2024-01-11T09:34:38;51.67;;;36.83;;
6809;SDS011;3443;48.812;9.112;2024-01-11T09:37:04;45.63;;;34.27;;
6809;SDS011;3443;48.812;9.112;2024-01-11T09:39:30;47.40;;;33.63;;
6809;SDS011;3443;48.812;9.112;2024-01-11T09:42:02;45.47;;;33.63;;
6809;SDS011;3443;48.812;9.112;2024-01-11T09:44:36;46.60;;;35.50;;
6809;SDS011;3443;48.812;9.112;2024-01-11T09:47:04;48.87;;;35.37;;
6809;SDS011;3443;48.812;9.112;2024-01-11T09:49:33;48.00;;;35.40;;
6809;SDS011;3443;48.812;9.112;2024-01-11T09:52:00;45.03;;;33.83;;
6809;SDS011;3443;48.812;9.112;2024-01-11T09:54:28;49.07;;;34.67;;
6809;SDS011;3443;48.812;9.112;2024-01-11T09:56:54;44.90;;;33.97;;
6809;SDS011;3443;48.812;9.112;2024-01-11T09:59:23;44.17;;;34.27;;
6809;SDS011;3443;48.812;9.112;2024-01-11T10:01:49;45.43;;;34.47;;
6809;SDS011;3443;48.812;9.112;2024-01-11T10:04:16;43.20;;;33.73;;
6809;SDS011;3443;48.812;9.112;2024-01-11T10:06:42;46.00;;;33.30;;
6809;SDS011;3443;48.812;9.112;2024-01-11T10:09:08;46.13;;;33.77;;
6809;SDS011;3443;48.812;9.112;2024-01-11T10:11:34;44.63;;;34.70;;
6809;SDS011;3443;48.812;9.112;2024-01-11T10:14:00;46.87;;;34.43;;
6809;SDS011;3443;48.812;9.112;2024-01-11T10:16:27;44.90;;;33.20;;
6809;SDS011;3443;48.812;9.112;2024-01-11T10:18:54;49.23;;;35.00;;
6809;SDS011;3443;48.812;9.112;2024-01-11T10:21:20;49.50;;;35.43;;
6809;SDS011;3443;48.812;9.112;2024-01-11T10:23:46;49.43;;;36.63;;
6809;SDS011;3443;48.812;9.112;2024-01-11T10:26:12;47.73;;;34.83;;
6809;SDS011;3443;48.812;9.112;2024-01-11T10:28:43;48.77;;;36.37;;
6809;SDS011;3443;48.812;9.112;2024-01-11T10:31:10;50.30;;;36.60;;
6809;SDS011;3443;48.812;9.112;2024-01-11T10:33:35;43.90;;;34.77;;
6809;SDS011;3443;48.812;9.112;2024-01-11T10:36:02;47.23;;;35.23;;
6809;SDS011;3443;48.812;9.112;2024-01-11T10:38:29;50.97;;;35.70;;
6809;SDS011;3443;48.812;9.112;2024-01-11T10:40:59;46.63;;;35.30;;
6809;SDS011;3443;48.812;9.112;2024-01-11T10:43:28;48.63;;;35.13;;
6809;SDS011;3443;48.812;9.112;2024-01-11T10:45:56;48.30;;;34.73;;
6809;SDS011;3443;48.812;9.112;2024-01-11T10:48:26;48.93;;;35.17;;
6809;SDS011;3443;48.812;9.112;2024-01-11T10:50:57;49.67;;;35.43;;
6809;SDS011;3443;48.812;9.112;2024-01-11T10:53:28;49.50;;;35.50;;
6809;SDS011;3443;48.812;9.112;2024-01-11T10:56:04;46.33;;;33.73;;
6809;SDS011;3443;48.812;9.112;2024-01-11T10:58:34;46.47;;;35.80;;
6809;SDS011;3443;48.812;9.112;2024-01-11T11:01:00;48.03;;;34.87;;
6809;SDS011;3443;48.812;9.112;2024-01-11T11:03:29;48.90;;;35.93;;
6809;SDS011;3443;48.812;9.112;2024-01-11T11:05:56;50.00;;;35.03;;
6809;SDS011;3443;48.812;9.112;2024-01-11T11:08:23;50.53;;;35.53;;
6809;SDS011;3443;48.812;9.112;2024-01-11T11:11:01;46.77;;;36.30;;
6809;SDS011;3443;48.812;9.112;2024-01-11T11:13:31;48.13;;;36.10;;
6809;SDS011;3443;48.812;9.112;2024-01-11T11:15:57;48.13;;;35.50;;
6809;SDS011;3443;48.812;9.112;2024-01-11T11:18:23;43.70;;;32.87;;
6809;SDS011;3443;48.812;9.112;2024-01-11T11:20:50;48.77;;;35.37;;
6809;SDS011;3443;48.812;9.112;2024-01-11T11:23:16;48.60;;;36.60;;
6809;SDS011;3443;48.812;9.112;2024-01-11T11:25:45;48.83;;;35.20;;
6809;SDS011;3443;48.812;9.112;2024-01-11T11:28:13;50.87;;;35.63;;
6809;SDS011;3443;48.812;9.112;2024-01-11T11:30:40;47.27;;;35.27;;
6809;SDS011;3443;48.812;9.112;2024-01-11T11:33:08;45.50;;;35.37;;
6809;SDS011;3443;48.812;9.112;2024-01-11T11:35:45;50.00;;;36.50;;
6809;SDS011;3443;48.812;9.112;2024-01-11T11:38:17;47.67;;;35.43;;
6809;SDS011;3443;48.812;9.112;2024-01-11T11:40:45;47.27;;;33.63;;
6809;SDS011;3443;48.812;9.112;2024-01-11T11:43:11;47.07;;;34.33;;
6809;SDS011;3443;48.812;9.112;2024-01-11T11:45:39;48.23;;;35.00;;
6809;SDS011;3443;48.812;9.112;2024-01-11T11:53:38;45.53;;;33.83;;
6809;SDS011;3443;48.812;9.112;2024-01-11T11:56:05;45.97;;;34.53;;
6809;SDS011;3443;48.812;9.112;2024-01-11T11:58:32;48.20;;;34.13;;
6809;SDS011;3443;48.812;9.112;2024-01-11T12:00:59;45.73;;;33.63;;
6809;SDS011;3443;48.812;9.112;2024-01-11T12:03:30;51.77;;;35.57;;
6809;SDS011;3443;48.812;9.112;2024-01-11T12:05:57;47.60;;;35.37;;
6809;SDS011;3443;48.812;9.112;2024-01-11T12:08:24;48.30;;;34.97;;
6809;SDS011;3443;48.812;9.112;2024-01-11T12:10:50;48.20;;;34.50;;
6809;SDS011;3443;48.812;9.112;2024-01-11T12:13:17;48.93;;;34.20;;
6809;SDS011;3443;48.812;9.112;2024-01-11T12:15:43;44.53;;;34.60;;
6809;SDS011;3443;48.812;9.112;2024-01-11T12:18:08;45.37;;;34.63;;
6809;SDS011;3443;48.812;9.112;2024-01-11T12:20:34;47.93;;;33.57;;
6809;SDS011;3443;48.812;9.112;2024-01-11T12:23:00;50.23;;;34.17;;
6809;SDS011;3443;48.812;9.112;2024-01-11T12:25:27;48.47;;;34.30;;
6809;SDS011;3443;48.812;9.112;2024-01-11T12:27:53;45.27;;;32.57;;
6809;SDS011;3443;48.812;9.112;2024-01-11T12:30:22;49.13;;;33.67;;
6809;SDS011;3443;48.812;9.112;2024-01-11T12:32:48;46.33;;;32.87;;
6809;SDS011;3443;48.812;9.112;2024-01-11T12:35:15;47.47;;;33.37;;
6809;SDS011;3443;48.812;9.112;2024-01-11T12:37:41;46.93;;;32.67;;
6809;SDS011;3443;48.812;9.112;2024-01-11T12:40:17;46.63;;;34.27;;
6809;SDS011;3443;48.812;9.112;2024-01-11T12:42:42;49.40;;;33.50;;
6809;SDS011;3443;48.812;9.112;2024-01-11T12:45:08;49.33;;;33.90;;
6809;SDS011;3443;48.812;9.112;2024-01-11T12:47:34;51.67;;;33.67;;
6809;SDS011;3443;48.812;9.112;2024-01-11T12:50:00;46.70;;;32.37;;
6809;SDS011;3443;48.812;9.112;2024-01-11T12:52:25;44.87;;;32.60;;
6809;SDS011;3443;48.812;9.112;2024-01-11T12:54:52;48.40;;;31.57;;
6809;SDS011;3443;48.812;9.112;2024-01-11T12:57:18;44.40;;;32.40;;
6809;SDS011;3443;48.812;9.112;2024-01-11T12:59:44;47.73;;;33.13;;
6809;SDS011;3443;48.812;9.112;2024-01-11T13:02:10;45.63;;;31.20;;
6809;SDS011;3443;48.812;9.112;2024-01-11T13:04:39;47.60;;;33.37;;
6809;SDS011;3443;48.812;9.112;2024-01-11T13:07:05;49.03;;;32.67;;
6809;SDS011;3443;48.812;9.112;2024-01-11T13:09:32;45.27;;;32.50;;
6809;SDS011;3443;48.812;9.112;2024-01-11T13:11:58;43.20;;;32.90;;
6809;SDS011;3443;48.812;9.112;2024-01-11T13:14:24;48.07;;;32.30;;
6809;SDS011;3443;48.812;9.112;2024-01-11T13:16:49;45.40;;;32.27;;
6809;SDS011;3443;48.812;9.112;2024-01-11T13:19:16;42.37;;;30.77;;
6809;SDS011;3443;48.812;9.112;2024-01-11T13:21:41;47.33;;;32.00;;
6809;SDS011;3443;48.812;9.112;2024-01-11T13:24:07;45.87;;;32.53;;
6809;SDS011;3443;48.812;9.112;2024-01-11T13:26:33;45.50;;;32.20;;
6809;SDS011;3443;48.812;9.112;2024-01-11T13:29:01;45.50;;;32.33;;
6809;SDS011;3443;48.812;9.112;2024-01-11T13:31:27;46.57;;;30.53;;
6809;SDS011;3443;48.812;9.112;2024-01-11T13:33:53;42.80;;;30.60;;
6809;SDS011;3443;48.812;9.112;2024-01-11T13:36:21;48.03;;;32.67;;
6809;SDS011;3443;48.812;9.112;2024-01-11T13:38:47;42.37;;;31.30;;
6809;SDS011;3443;48.812;9.112;2024-01-11T13:41:14;44.73;;;31.70;;
6809;SDS011;3443;48.812;9.112;2024-01-11T13:43:40;42.57;;;30.97;;
6809;SDS011;3443;48.812;9.112;2024-01-11T13:46:05;47.87;;;32.73;;
6809;SDS011;3443;48.812;9.112;2024-01-11T13:48:31;46.07;;;32.77;;
6809;SDS011;3443;48.812;9.112;2024-01-11T13:50:58;51.93;;;34.27;;
6809;SDS011;3443;48.812;9.112;2024-01-11T13:53:24;45.97;;;33.13;;
6809;SDS011;3443;48.812;9.112;2024-01-11T13:55:50;47.17;;;31.77;;
6809;SDS011;3443;48.812;9.112;2024-01-11T13:58:17;41.63;;;32.37;;
6809;SDS011;3443;48.812;9.112;2024-01-11T14:00:43;48.40;;;33.90;;
6809;SDS011;3443;48.812;9.112;2024-01-11T14:03:09;46.83;;;32.30;;
6809;SDS011;3443;48.812;9.112;2024-01-11T14:05:35;44.57;;;31.80;;
6809;SDS011;3443;48.812;9.112;2024-01-11T14:08:02;44.30;;;32.63;;
6809;SDS011;3443;48.812;9.112;2024-01-11T14:10:30;47.47;;;31.47;;
6809;SDS011;3443;48.812;9.112;2024-01-11T14:12:57;43.80;;;33.13;;
6809;SDS011;3443;48.812;9.112;2024-01-11T14:15:24;48.17;;;32.47;;
6809;SDS011;3443;48.812;9.112;2024-01-11T14:17:50;48.40;;;33.27;;
6809;SDS011;3443;48.812;9.112;2024-01-11T14:20:15;44.23;;;33.87;;
6809;SDS011;3443;48.812;9.112;2024-01-11T14:22:42;44.60;;;32.33;;
6809;SDS011;3443;48.812;9.112;2024-01-11T14:25:14;43.87;;;31.80;;
6809;SDS011;3443;48.812;9.112;2024-01-11T14:27:40;44.07;;;33.10;;
6809;SDS011;3443;48.812;9.112;2024-01-11T14:30:06;46.17;;;32.27;;
6809;SDS011;3443;48.812;9.112;2024-01-11T14:32:32;44.37;;;31.17;;
6809;SDS011;3443;48.812;9.112;2024-01-11T14:34:58;43.00;;;31.80;;
6809;SDS011;3443;48.812;9.112;2024-01-11T14:37:28;43.17;;;31.90;;
6809;SDS011;3443;48.812;9.112;2024-01-11T14:39:58;44.10;;;32.60;;
6809;SDS011;3443;48.812;9.112;2024-01-11T14:42:24;43.50;;;32.03;;
6809;SDS011;3443;48.812;9.112;2024-01-11T14:44:50;45.37;;;32.67;;
6809;SDS011;3443;48.812;9.112;2024-01-11T14:47:16;42.13;;;31.33;;
6809;SDS011;3443;48.812;9.112;2024-01-11T14:49:42;44.67;;;32.37;;
6809;SDS011;3443;48.812;9.112;2024-01-11T14:52:07;45.43;;;33.37;;